createdAt,value
2018-06-13T00:00:31.091Z,26.50
2018-06-13T00:01:30.974Z,26.42
2018-06-13T00:02:30.939Z,26.32
2018-06-13T00:03:30.937Z,26.32
2018-06-13T00:04:30.915Z,26.32
2018-06-13T00:05:30.969Z,26.32
2018-06-13T00:06:30.844Z,26.27
2018-06-13T00:07:30.809Z,26.27
2018-06-13T00:08:30.777Z,26.32
2018-06-13T00:09:30.776Z,26.31
2018-06-13T00:10:30.853Z,26.20
2018-06-13T00:11:30.748Z,26.22
2018-06-13T00:12:30.735Z,26.20
2018-06-13T00:13:30.680Z,26.15
2018-06-13T00:14:30.699Z,26.07
2018-06-13T00:15:30.741Z,26.11
2018-06-13T00:16:30.702Z,26.09
2018-06-13T00:17:30.606Z,26.00
2018-06-13T00:18:30.579Z,26.01
2018-06-13T00:19:30.570Z,26.11
2018-06-13T00:20:30.520Z,25.93
2018-06-13T00:21:30.477Z,25.97
2018-06-13T00:22:30.560Z,25.97
2018-06-13T00:23:30.479Z,25.99
2018-06-13T00:24:30.402Z,25.96
2018-06-13T00:25:30.378Z,26.00
2018-06-13T00:26:30.342Z,26.03
2018-06-13T00:27:30.305Z,25.97
2018-06-13T00:28:30.363Z,25.88
2018-06-13T00:29:30.254Z,25.85
2018-06-13T00:30:30.246Z,25.85
2018-06-13T00:31:30.251Z,25.82
2018-06-13T00:32:30.200Z,25.79
2018-06-13T00:33:30.266Z,25.74
2018-06-13T00:34:30.175Z,25.71
2018-06-13T00:35:30.202Z,25.69
2018-06-13T00:36:30.223Z,25.64
2018-06-13T00:37:30.111Z,25.74
2018-06-13T00:38:30.206Z,25.70
2018-06-13T00:39:30.125Z,25.74
2018-06-13T00:40:30.026Z,25.67
2018-06-13T00:41:29.948Z,25.71
2018-06-13T00:42:29.974Z,25.67
2018-06-13T00:43:30.046Z,25.67
2018-06-13T00:44:29.894Z,25.69
2018-06-13T00:45:29.873Z,25.74
2018-06-13T00:46:29.978Z,25.70
2018-06-13T00:47:29.820Z,25.70
2018-06-13T00:48:29.885Z,25.63
2018-06-13T00:49:29.954Z,25.78
2018-06-13T00:50:29.758Z,25.67
2018-06-13T00:51:29.755Z,25.74
2018-06-13T00:52:29.729Z,25.70
2018-06-13T00:53:29.666Z,25.64
2018-06-13T00:54:29.807Z,25.69
2018-06-13T00:55:29.643Z,25.64
2018-06-13T00:56:29.720Z,25.54
2018-06-13T00:57:29.567Z,25.49
2018-06-13T00:58:29.538Z,25.57
2018-06-13T00:59:29.607Z,25.47
2018-06-13T01:00:31.117Z,25.54
2018-06-13T01:01:29.501Z,25.59
2018-06-13T01:02:29.502Z,25.56
2018-06-13T01:03:29.928Z,25.45
2018-06-13T01:04:29.374Z,25.48
2018-06-13T01:05:29.537Z,25.48
2018-06-13T01:06:29.349Z,25.57
2018-06-13T01:07:29.322Z,25.56
2018-06-13T01:08:29.379Z,25.59
2018-06-13T01:09:29.233Z,25.47
2018-06-13T01:10:29.382Z,25.44
2018-06-13T01:11:29.189Z,25.49
2018-06-13T01:12:29.221Z,25.52
2018-06-13T01:13:29.171Z,25.52
2018-06-13T01:14:29.789Z,25.49
2018-06-13T01:15:29.185Z,25.49
2018-06-13T01:16:29.070Z,25.54
2018-06-13T01:17:29.045Z,25.45
2018-06-13T01:18:29.019Z,25.44
2018-06-13T01:19:29.550Z,25.44
2018-06-13T01:20:29.073Z,25.44
2018-06-13T01:21:29.002Z,25.42
2018-06-13T01:22:28.942Z,25.51
2018-06-13T01:23:28.903Z,25.48
2018-06-13T01:24:28.860Z,25.47
2018-06-13T01:25:28.932Z,25.57
2018-06-13T01:26:28.921Z,25.45
2018-06-13T01:27:28.793Z,25.42
2018-06-13T01:28:28.783Z,25.44
2018-06-13T01:29:29.249Z,25.44
2018-06-13T01:30:28.736Z,25.45
2018-06-13T01:31:28.785Z,25.41
2018-06-13T01:32:28.683Z,25.41
2018-06-13T01:33:28.873Z,25.44
2018-06-13T01:34:28.625Z,25.39
2018-06-13T01:35:28.616Z,25.34
2018-06-13T01:36:28.699Z,25.41
2018-06-13T01:37:28.590Z,25.41
2018-06-13T01:38:28.496Z,25.38
2018-06-13T01:39:28.470Z,25.33
2018-06-13T01:40:28.495Z,25.38
2018-06-13T01:41:28.752Z,25.37
2018-06-13T01:42:28.967Z,25.44
2018-06-13T01:43:29.019Z,25.37
2018-06-13T01:44:28.575Z,25.29
2018-06-13T01:45:28.360Z,25.30
2018-06-13T01:46:28.853Z,25.29
2018-06-13T01:47:28.358Z,25.33
2018-06-13T01:48:28.249Z,25.29
2018-06-13T01:49:28.269Z,25.23
2018-06-13T01:50:28.233Z,25.20
2018-06-13T01:51:28.185Z,25.22
2018-06-13T01:52:28.330Z,25.22
2018-06-13T01:53:28.143Z,25.22
2018-06-13T01:54:28.171Z,25.15
2018-06-13T01:55:28.070Z,25.12
2018-06-13T01:56:28.038Z,25.12
2018-06-13T01:57:28.152Z,25.12
2018-06-13T01:58:28.005Z,25.17
2018-06-13T01:59:28.008Z,25.09
2018-06-13T02:00:27.987Z,25.11
2018-06-13T02:01:28.002Z,25.07
2018-06-13T02:02:28.502Z,25.17
2018-06-13T02:03:28.492Z,25.12
2018-06-13T02:04:28.090Z,25.04
2018-06-13T02:05:27.989Z,25.00
2018-06-13T02:06:27.767Z,25.01
2018-06-13T02:07:27.983Z,25.09
2018-06-13T02:08:28.004Z,24.96
2018-06-13T02:09:27.695Z,25.08
2018-06-13T02:10:27.732Z,25.08
2018-06-13T02:11:27.736Z,25.11
2018-06-13T02:12:27.638Z,25.12
2018-06-13T02:13:28.237Z,25.09
2018-06-13T02:14:27.577Z,25.04
2018-06-13T02:15:27.652Z,25.02
2018-06-13T02:16:27.584Z,25.00
2018-06-13T02:17:27.525Z,24.94
2018-06-13T02:18:27.485Z,24.94
2018-06-13T02:19:28.016Z,25.02
2018-06-13T02:20:27.419Z,24.93
2018-06-13T02:21:27.977Z,24.92
2018-06-13T02:22:27.378Z,24.90
2018-06-13T02:23:27.356Z,24.94
2018-06-13T02:24:27.321Z,24.94
2018-06-13T02:25:27.343Z,24.96
2018-06-13T02:26:27.262Z,24.92
2018-06-13T02:27:27.349Z,24.93
2018-06-13T02:28:27.371Z,24.92
2018-06-13T02:29:27.399Z,24.94
2018-06-13T02:30:27.362Z,24.90
2018-06-13T02:31:27.282Z,24.89
2018-06-13T02:32:27.664Z,24.94
2018-06-13T02:33:27.696Z,24.94
2018-06-13T02:34:27.318Z,24.93
2018-06-13T02:35:27.255Z,24.89
2018-06-13T02:36:27.206Z,24.86
2018-06-13T02:37:27.076Z,24.78
2018-06-13T02:38:27.293Z,24.82
2018-06-13T02:39:27.031Z,24.77
2018-06-13T02:40:26.920Z,24.83
2018-06-13T02:41:28.022Z,24.77
2018-06-13T02:42:26.923Z,24.77
2018-06-13T02:43:27.569Z,24.78
2018-06-13T02:44:27.372Z,24.78
2018-06-13T02:45:26.846Z,24.75
2018-06-13T02:46:27.313Z,24.74
2018-06-13T02:47:27.003Z,24.80
2018-06-13T02:48:26.858Z,24.80
2018-06-13T02:49:26.803Z,24.75
2018-06-13T02:50:26.792Z,24.83
2018-06-13T02:51:26.781Z,24.83
2018-06-13T02:52:27.278Z,24.92
2018-06-13T02:53:26.648Z,24.90
2018-06-13T02:54:26.631Z,24.92
2018-06-13T02:55:26.840Z,24.97
2018-06-13T02:56:26.671Z,24.89
2018-06-13T02:57:26.974Z,24.92
2018-06-13T02:58:27.406Z,24.93
2018-06-13T02:59:26.800Z,24.94
2018-06-13T03:00:26.799Z,24.87
2018-06-13T03:01:26.546Z,24.92
2018-06-13T03:02:26.432Z,24.90
2018-06-13T03:03:26.469Z,24.92
2018-06-13T03:04:26.304Z,24.90
2018-06-13T03:05:26.542Z,24.92
2018-06-13T03:06:26.769Z,24.93
2018-06-13T03:07:26.270Z,24.82
2018-06-13T03:08:26.913Z,24.89
2018-06-13T03:09:26.183Z,24.87
2018-06-13T03:10:26.154Z,24.93
2018-06-13T03:11:26.066Z,24.90
2018-06-13T03:12:26.632Z,24.93
2018-06-13T03:13:26.085Z,24.94
2018-06-13T03:14:26.751Z,24.87
2018-06-13T03:15:26.033Z,24.77
2018-06-13T03:16:25.931Z,24.85
2018-06-13T03:17:26.241Z,24.82
2018-06-13T03:18:25.926Z,24.77
2018-06-13T03:19:26.105Z,24.75
2018-06-13T03:20:25.948Z,24.77
2018-06-13T03:21:25.852Z,24.82
2018-06-13T03:22:25.880Z,24.75
2018-06-13T03:23:26.231Z,24.80
2018-06-13T03:24:27.284Z,24.75
2018-06-13T03:25:26.311Z,24.77
2018-06-13T03:26:26.000Z,24.70
2018-06-13T03:27:25.914Z,24.70
2018-06-13T03:28:25.618Z,24.74
2018-06-13T03:29:25.602Z,24.69
2018-06-13T03:30:25.692Z,24.63
2018-06-13T03:31:25.573Z,24.66
2018-06-13T03:32:25.643Z,24.59
2018-06-13T03:33:25.536Z,24.58
2018-06-13T03:34:25.447Z,24.56
2018-06-13T03:35:25.519Z,24.58
2018-06-13T03:36:25.410Z,24.64
2018-06-13T03:37:25.402Z,24.59
2018-06-13T03:38:25.437Z,24.59
2018-06-13T03:39:25.335Z,24.63
2018-06-13T03:40:25.538Z,24.54
2018-06-13T03:41:25.340Z,24.49
2018-06-13T03:42:25.293Z,24.66
2018-06-13T03:43:25.481Z,24.56
2018-06-13T03:44:25.445Z,24.56
2018-06-13T03:45:25.234Z,24.64
2018-06-13T03:46:25.309Z,24.49
2018-06-13T03:47:25.122Z,24.52
2018-06-13T03:48:25.214Z,24.55
2018-06-13T03:49:25.241Z,24.46
2018-06-13T03:50:25.125Z,24.49
2018-06-13T03:51:25.406Z,24.59
2018-06-13T03:52:25.278Z,24.48
2018-06-13T03:53:24.998Z,24.48
2018-06-13T03:54:24.941Z,24.46
2018-06-13T03:55:24.908Z,24.51
2018-06-13T03:56:24.982Z,24.48
2018-06-13T03:57:24.851Z,24.45
2018-06-13T03:58:24.872Z,24.40
2018-06-13T03:59:25.002Z,24.45
2018-06-13T04:00:24.853Z,24.44
2018-06-13T04:01:25.381Z,24.40
2018-06-13T04:02:25.049Z,24.34
2018-06-13T04:03:24.904Z,24.36
2018-06-13T04:04:24.727Z,24.36
2018-06-13T04:05:24.663Z,24.36
2018-06-13T04:06:24.960Z,24.33
2018-06-13T04:07:24.575Z,24.32
2018-06-13T04:08:24.590Z,24.33
2018-06-13T04:09:24.662Z,24.33
2018-06-13T04:10:24.620Z,24.34
2018-06-13T04:11:24.533Z,24.30
2018-06-13T04:12:24.805Z,24.32
2018-06-13T04:13:24.733Z,24.36
2018-06-13T04:14:24.434Z,24.36
2018-06-13T04:15:24.435Z,24.40
2018-06-13T04:16:24.546Z,24.42
2018-06-13T04:17:24.332Z,24.34
2018-06-13T04:18:24.407Z,24.37
2018-06-13T04:19:24.543Z,24.36
2018-06-13T04:20:24.252Z,24.34
2018-06-13T04:21:24.231Z,24.32
2018-06-13T04:22:24.223Z,24.36
2018-06-13T04:23:24.223Z,24.32
2018-06-13T04:24:24.164Z,24.33
2018-06-13T04:25:24.123Z,24.33
2018-06-13T04:26:24.132Z,24.30
2018-06-13T04:27:24.072Z,24.22
2018-06-13T04:28:24.173Z,24.32
2018-06-13T04:29:24.031Z,24.36
2018-06-13T04:30:24.146Z,24.30
2018-06-13T04:31:24.125Z,24.34
2018-06-13T04:32:23.999Z,24.36
2018-06-13T04:33:24.170Z,24.36
2018-06-13T04:34:23.956Z,24.34
2018-06-13T04:35:23.924Z,24.32
2018-06-13T04:36:23.891Z,24.34
2018-06-13T04:37:23.892Z,24.37
2018-06-13T04:38:23.921Z,24.44
2018-06-13T04:39:23.797Z,24.42
2018-06-13T04:40:23.708Z,24.40
2018-06-13T04:41:23.756Z,24.40
2018-06-13T04:42:23.698Z,24.40
2018-06-13T04:43:23.798Z,24.56
2018-06-13T04:44:23.672Z,24.44
2018-06-13T04:45:23.658Z,24.40
2018-06-13T04:46:23.559Z,24.49
2018-06-13T04:47:23.559Z,24.58
2018-06-13T04:48:23.548Z,24.59
2018-06-13T04:49:23.501Z,24.52
2018-06-13T04:50:23.517Z,24.49
2018-06-13T04:51:23.538Z,24.52
2018-06-13T04:52:23.425Z,24.55
2018-06-13T04:53:23.386Z,24.51
2018-06-13T04:54:23.486Z,24.52
2018-06-13T04:55:23.338Z,24.66
2018-06-13T04:56:23.277Z,24.59
2018-06-13T04:57:23.253Z,24.48
2018-06-13T04:58:23.500Z,24.54
2018-06-13T04:59:23.428Z,24.61
2018-06-13T05:00:23.181Z,24.59
2018-06-13T05:01:23.222Z,24.63
2018-06-13T05:02:23.141Z,24.63
2018-06-13T05:03:23.232Z,24.67
2018-06-13T05:04:23.239Z,24.66
2018-06-13T05:05:23.162Z,24.59
2018-06-13T05:06:23.022Z,24.59
2018-06-13T05:07:23.000Z,24.54
2018-06-13T05:08:23.035Z,24.63
2018-06-13T05:09:23.041Z,24.69
2018-06-13T05:10:23.002Z,24.64
2018-06-13T05:11:22.892Z,24.71
2018-06-13T05:12:22.854Z,24.77
2018-06-13T05:13:22.834Z,24.80
2018-06-13T05:14:22.955Z,24.77
2018-06-13T05:15:22.811Z,24.74
2018-06-13T05:16:22.771Z,24.67
2018-06-13T05:17:22.779Z,24.71
2018-06-13T05:18:22.859Z,24.67
2018-06-13T05:19:22.943Z,24.71
2018-06-13T05:20:22.722Z,24.71
2018-06-13T05:21:22.704Z,24.67
2018-06-13T05:22:22.665Z,24.67
2018-06-13T05:23:22.602Z,24.61
2018-06-13T05:24:22.760Z,24.67
2018-06-13T05:25:22.834Z,24.77
2018-06-13T05:26:22.578Z,24.75
2018-06-13T05:27:22.672Z,24.74
2018-06-13T05:28:22.441Z,24.74
2018-06-13T05:29:22.414Z,24.71
2018-06-13T05:30:22.582Z,24.75
2018-06-13T05:31:22.345Z,24.80
2018-06-13T05:32:22.345Z,24.80
2018-06-13T05:33:22.431Z,24.71
2018-06-13T05:34:22.321Z,24.69
2018-06-13T05:35:22.219Z,24.67
2018-06-13T05:36:22.449Z,24.58
2018-06-13T05:37:22.209Z,24.66
2018-06-13T05:38:22.183Z,24.59
2018-06-13T05:39:22.174Z,24.56
2018-06-13T05:40:22.121Z,24.54
2018-06-13T05:41:22.196Z,24.52
2018-06-13T05:42:22.050Z,24.49
2018-06-13T05:43:22.117Z,24.54
2018-06-13T05:44:22.015Z,24.52
2018-06-13T05:45:22.165Z,24.51
2018-06-13T05:46:22.105Z,24.49
2018-06-13T05:47:21.919Z,24.49
2018-06-13T05:48:21.926Z,24.44
2018-06-13T05:49:21.977Z,24.48
2018-06-13T05:50:22.011Z,24.44
2018-06-13T05:51:21.959Z,24.55
2018-06-13T05:52:21.829Z,24.45
2018-06-13T05:53:21.841Z,24.52
2018-06-13T05:54:21.794Z,24.52
2018-06-13T05:55:21.816Z,24.46
2018-06-13T05:56:22.046Z,24.44
2018-06-13T05:57:21.806Z,24.48
2018-06-13T05:58:21.700Z,24.54
2018-06-13T05:59:21.775Z,24.39
2018-06-13T06:00:21.810Z,24.36
2018-06-13T06:01:22.168Z,24.21
2018-06-13T06:02:21.759Z,24.27
2018-06-13T06:03:21.505Z,24.22
2018-06-13T06:04:21.563Z,24.24
2018-06-13T06:05:21.631Z,24.24
2018-06-13T06:06:21.516Z,24.26
2018-06-13T06:07:21.517Z,24.24
2018-06-13T06:08:21.426Z,24.19
2018-06-13T06:09:21.377Z,24.22
2018-06-13T06:10:21.321Z,24.26
2018-06-13T06:11:21.429Z,24.19
2018-06-13T06:12:21.391Z,24.19
2018-06-13T06:13:21.495Z,24.30
2018-06-13T06:14:21.304Z,24.34
2018-06-13T06:15:21.308Z,24.30
2018-06-13T06:16:21.294Z,24.49
2018-06-13T06:17:21.282Z,24.42
2018-06-13T06:18:21.508Z,24.32
2018-06-13T06:19:21.054Z,24.21
2018-06-13T06:20:21.040Z,24.09
2018-06-13T06:21:21.197Z,24.19
2018-06-13T06:22:21.165Z,24.18
2018-06-13T06:23:21.067Z,24.12
2018-06-13T06:24:21.093Z,24.15
2018-06-13T06:25:20.939Z,24.08
2018-06-13T06:26:21.368Z,24.03
2018-06-13T06:27:20.959Z,24.09
2018-06-13T06:28:21.025Z,24.07
2018-06-13T06:29:20.982Z,24.08
2018-06-13T06:30:20.913Z,24.03
2018-06-13T06:31:20.830Z,24.08
2018-06-13T06:32:20.835Z,24.11
2018-06-13T06:33:21.313Z,24.11
2018-06-13T06:34:20.686Z,24.08
2018-06-13T06:35:20.747Z,24.12
2018-06-13T06:36:20.617Z,24.11
2018-06-13T06:37:20.785Z,24.08
2018-06-13T06:38:20.707Z,24.07
2018-06-13T06:39:20.619Z,24.04
2018-06-13T06:40:20.545Z,24.15
2018-06-13T06:41:20.573Z,24.12
2018-06-13T06:42:20.528Z,24.15
2018-06-13T06:43:20.595Z,24.15
2018-06-13T06:44:20.393Z,24.12
2018-06-13T06:45:20.581Z,24.14
2018-06-13T06:46:20.363Z,24.07
2018-06-13T06:47:20.415Z,24.07
2018-06-13T06:48:20.334Z,24.08
2018-06-13T06:49:20.259Z,24.08
2018-06-13T06:50:20.363Z,24.04
2018-06-13T06:51:20.270Z,24.04
2018-06-13T06:52:20.334Z,24.00
2018-06-13T06:53:20.173Z,23.97
2018-06-13T06:54:20.145Z,24.02
2018-06-13T06:55:20.641Z,23.99
2018-06-13T06:56:20.309Z,23.99
2018-06-13T06:57:20.240Z,24.04
2018-06-13T06:58:20.054Z,23.97
2018-06-13T06:59:19.999Z,24.02
2018-06-13T07:00:20.069Z,24.00
2018-06-13T07:01:19.926Z,23.99
2018-06-13T07:02:19.911Z,23.94
2018-06-13T07:03:19.965Z,24.03
2018-06-13T07:04:19.844Z,24.08
2018-06-13T07:05:19.941Z,23.96
2018-06-13T07:06:19.816Z,23.97
2018-06-13T07:07:19.779Z,23.97
2018-06-13T07:08:19.750Z,24.00
2018-06-13T07:09:19.749Z,23.93
2018-06-13T07:10:19.740Z,24.00
2018-06-13T07:11:19.769Z,23.97
2018-06-13T07:12:19.633Z,23.92
2018-06-13T07:13:19.630Z,23.96
2018-06-13T07:14:19.641Z,23.92
2018-06-13T07:15:19.591Z,23.90
2018-06-13T07:16:19.603Z,24.02
2018-06-13T07:17:19.515Z,24.00
2018-06-13T07:18:19.527Z,23.87
2018-06-13T07:19:19.453Z,23.97
2018-06-13T07:20:19.431Z,23.94
2018-06-13T07:21:19.389Z,23.84
2018-06-13T07:22:19.408Z,23.79
2018-06-13T07:23:19.396Z,23.81
2018-06-13T07:24:19.352Z,23.90
2018-06-13T07:25:19.287Z,23.99
2018-06-13T07:26:19.265Z,23.87
2018-06-13T07:27:19.306Z,23.89
2018-06-13T07:28:19.199Z,23.87
2018-06-13T07:29:19.196Z,23.89
2018-06-13T07:30:19.154Z,23.89
2018-06-13T07:31:19.126Z,23.89
2018-06-13T07:32:19.188Z,23.89
2018-06-13T07:33:19.088Z,23.82
2018-06-13T07:34:19.065Z,23.82
2018-06-13T07:35:19.053Z,23.78
2018-06-13T07:36:18.998Z,23.85
2018-06-13T07:37:19.076Z,23.84
2018-06-13T07:38:18.961Z,23.81
2018-06-13T07:39:18.987Z,23.84
2018-06-13T07:40:18.894Z,23.78
2018-06-13T07:41:18.860Z,23.75
2018-06-13T07:42:18.942Z,23.78
2018-06-13T07:43:18.888Z,23.79
2018-06-13T07:44:18.797Z,23.84
2018-06-13T07:45:18.755Z,23.87
2018-06-13T07:46:18.786Z,23.79
2018-06-13T07:47:18.707Z,23.79
2018-06-13T07:48:18.775Z,23.77
2018-06-13T07:49:18.648Z,23.82
2018-06-13T07:50:18.607Z,23.84
2018-06-13T07:51:18.586Z,23.82
2018-06-13T07:52:18.693Z,23.81
2018-06-13T07:53:18.803Z,23.87
2018-06-13T07:54:18.540Z,23.89
2018-06-13T07:55:18.484Z,23.85
2018-06-13T07:56:18.448Z,23.84
2018-06-13T07:57:18.466Z,23.84
2018-06-13T07:58:18.398Z,23.81
2018-06-13T07:59:18.516Z,23.84
2018-06-13T08:00:18.355Z,23.82
2018-06-13T08:01:18.315Z,23.81
2018-06-13T08:02:18.377Z,23.84
2018-06-13T08:03:18.313Z,23.77
2018-06-13T08:04:18.359Z,23.77
2018-06-13T08:05:18.224Z,23.74
2018-06-13T08:06:18.192Z,23.79
2018-06-13T08:07:18.174Z,23.72
2018-06-13T08:08:18.132Z,23.71
2018-06-13T08:09:18.247Z,23.71
2018-06-13T08:10:18.093Z,23.77
2018-06-13T08:11:18.040Z,23.70
2018-06-13T08:12:18.025Z,23.77
2018-06-13T08:13:18.000Z,23.77
2018-06-13T08:14:18.070Z,23.63
2018-06-13T08:15:17.933Z,23.67
2018-06-13T08:16:17.951Z,23.75
2018-06-13T08:17:17.891Z,23.64
2018-06-13T08:18:17.856Z,23.62
2018-06-13T08:19:17.822Z,23.64
2018-06-13T08:20:17.814Z,23.67
2018-06-13T08:21:17.772Z,23.62
2018-06-13T08:22:17.758Z,23.59
2018-06-13T08:23:17.741Z,23.60
2018-06-13T08:24:17.694Z,23.57
2018-06-13T08:25:17.764Z,23.63
2018-06-13T08:26:17.689Z,23.56
2018-06-13T08:27:17.606Z,23.56
2018-06-13T08:28:17.585Z,23.60
2018-06-13T08:29:17.571Z,23.59
2018-06-13T08:30:17.642Z,23.60
2018-06-13T08:31:17.495Z,23.59
2018-06-13T08:32:17.499Z,23.63
2018-06-13T08:33:17.469Z,23.70
2018-06-13T08:34:17.427Z,23.70
2018-06-13T08:35:17.403Z,23.67
2018-06-13T08:36:17.518Z,23.63
2018-06-13T08:37:17.345Z,23.70
2018-06-13T08:38:17.334Z,23.64
2018-06-13T08:39:17.294Z,23.63
2018-06-13T08:40:17.273Z,23.60
2018-06-13T08:41:17.354Z,23.60
2018-06-13T08:42:17.225Z,23.67
2018-06-13T08:43:17.202Z,23.71
2018-06-13T08:44:17.156Z,23.59
2018-06-13T08:45:17.141Z,23.66
2018-06-13T08:46:17.212Z,23.59
2018-06-13T08:47:17.069Z,23.56
2018-06-13T08:48:17.061Z,23.55
2018-06-13T08:49:17.036Z,23.52
2018-06-13T08:50:16.987Z,23.63
2018-06-13T08:51:16.967Z,23.57
2018-06-13T08:52:16.976Z,23.57
2018-06-13T08:53:16.913Z,23.59
2018-06-13T08:54:16.887Z,23.56
2018-06-13T08:55:16.890Z,23.52
2018-06-13T08:56:16.847Z,23.55
2018-06-13T08:57:16.841Z,23.55
2018-06-13T08:58:16.778Z,23.53
2018-06-13T08:59:16.743Z,23.52
2018-06-13T09:00:16.717Z,23.53
2018-06-13T09:01:16.689Z,23.56
2018-06-13T09:02:16.822Z,23.55
2018-06-13T09:03:16.705Z,23.62
2018-06-13T09:04:16.624Z,23.56
2018-06-13T09:05:16.583Z,23.62
2018-06-13T09:06:16.560Z,23.63
2018-06-13T09:07:16.643Z,23.53
2018-06-13T09:08:16.521Z,23.60
2018-06-13T09:09:16.490Z,23.56
2018-06-13T09:10:16.453Z,23.53
2018-06-13T09:11:16.425Z,23.60
2018-06-13T09:12:16.472Z,23.53
2018-06-13T09:13:16.452Z,23.53
2018-06-13T09:14:16.411Z,23.56
2018-06-13T09:15:16.318Z,23.52
2018-06-13T09:16:16.302Z,23.53
2018-06-13T09:17:16.272Z,23.45
2018-06-13T09:18:16.361Z,23.63
2018-06-13T09:19:16.198Z,23.53
2018-06-13T09:20:16.173Z,23.57
2018-06-13T09:21:16.158Z,23.47
2018-06-13T09:22:16.144Z,23.48
2018-06-13T09:23:16.138Z,23.56
2018-06-13T09:24:16.059Z,23.59
2018-06-13T09:25:16.061Z,23.62
2018-06-13T09:26:16.051Z,23.62
2018-06-13T09:27:16.023Z,23.57
2018-06-13T09:28:15.949Z,23.52
2018-06-13T09:29:16.036Z,23.50
2018-06-13T09:30:15.899Z,23.59
2018-06-13T09:31:15.948Z,23.47
2018-06-13T09:32:15.842Z,23.48
2018-06-13T09:33:15.821Z,23.48
2018-06-13T09:34:15.906Z,23.55
2018-06-13T09:35:15.774Z,23.56
2018-06-13T09:36:15.747Z,23.52
2018-06-13T09:37:15.758Z,23.44
2018-06-13T09:38:15.699Z,23.42
2018-06-13T09:39:15.775Z,23.52
2018-06-13T09:40:15.660Z,23.52
2018-06-13T09:41:15.628Z,23.57
2018-06-13T09:42:15.595Z,23.52
2018-06-13T09:43:15.554Z,23.60
2018-06-13T09:44:15.589Z,23.59
2018-06-13T09:45:15.544Z,23.52
2018-06-13T09:46:15.479Z,23.41
2018-06-13T09:48:15.470Z,23.55
2018-06-13T09:49:15.390Z,23.55
2018-06-13T09:50:15.412Z,23.47
2018-06-13T09:51:15.381Z,23.42
2018-06-13T09:52:15.294Z,23.55
2018-06-13T09:53:15.298Z,23.50
2018-06-13T09:54:15.268Z,23.53
2018-06-13T09:55:15.216Z,23.48
2018-06-13T09:56:15.192Z,23.41
2018-06-13T09:57:15.182Z,23.47
2018-06-13T09:58:15.147Z,23.52
2018-06-13T09:59:15.111Z,23.38
2018-06-13T10:00:15.096Z,23.42
2018-06-13T10:01:15.118Z,23.47
2018-06-13T10:02:15.085Z,23.40
2018-06-13T10:03:15.019Z,23.47
2018-06-13T10:04:15.001Z,23.40
2018-06-13T10:05:14.958Z,23.44
2018-06-13T10:06:15.019Z,23.41
2018-06-13T10:07:14.905Z,23.48
2018-06-13T10:08:14.876Z,23.45
2018-06-13T10:09:14.856Z,23.41
2018-06-13T10:10:14.810Z,23.48
2018-06-13T10:11:14.887Z,23.38
2018-06-13T10:12:14.761Z,23.44
2018-06-13T10:13:14.740Z,23.41
2018-06-13T10:14:14.701Z,23.42
2018-06-13T10:15:14.680Z,23.40
2018-06-13T10:16:14.752Z,23.41
2018-06-13T10:17:14.640Z,23.45
2018-06-13T10:18:14.618Z,23.56
2018-06-13T10:19:14.571Z,23.42
2018-06-13T10:20:14.542Z,23.44
2018-06-13T10:21:14.655Z,23.44
2018-06-13T10:22:14.533Z,23.55
2018-06-13T10:23:14.459Z,23.52
2018-06-13T10:24:14.443Z,23.53
2018-06-13T10:25:14.412Z,23.50
2018-06-13T10:26:14.444Z,23.41
2018-06-13T10:27:14.418Z,23.44
2018-06-13T10:28:14.334Z,23.44
2018-06-13T10:29:14.294Z,23.45
2018-06-13T10:30:14.270Z,23.57
2018-06-13T10:31:14.247Z,23.52
2018-06-13T10:32:14.237Z,23.45
2018-06-13T10:33:14.308Z,23.52
2018-06-13T10:34:14.158Z,23.50
2018-06-13T10:35:14.137Z,23.59
2018-06-13T10:36:14.107Z,23.57
2018-06-13T10:37:14.135Z,23.42
2018-06-13T10:38:14.122Z,23.59
2018-06-13T10:39:14.124Z,23.52
2018-06-13T10:40:13.997Z,23.41
2018-06-13T10:41:13.975Z,23.53
2018-06-13T10:42:13.953Z,23.56
2018-06-13T10:43:13.940Z,23.45
2018-06-13T10:44:13.998Z,23.60
2018-06-13T10:45:13.965Z,23.57
2018-06-13T10:46:13.850Z,23.62
2018-06-13T10:47:13.798Z,23.50
2018-06-13T10:48:13.795Z,23.55
2018-06-13T10:49:13.849Z,23.45
2018-06-13T10:50:13.735Z,23.44
2018-06-13T10:51:13.709Z,23.59
2018-06-13T10:52:13.756Z,23.55
2018-06-13T10:53:13.645Z,23.45
2018-06-13T10:54:13.661Z,23.41
2018-06-13T10:55:13.590Z,23.50
2018-06-13T10:56:13.566Z,23.56
2018-06-13T10:57:13.547Z,23.52
2018-06-13T10:58:13.521Z,23.57
2018-06-13T10:59:13.592Z,23.55
2018-06-13T11:00:13.477Z,23.56
2018-06-13T11:01:13.448Z,23.52
2018-06-13T11:02:13.417Z,23.53
2018-06-13T11:03:13.377Z,23.42
2018-06-13T11:04:13.364Z,23.57
2018-06-13T11:05:13.436Z,23.47
2018-06-13T11:06:13.306Z,23.48
2018-06-13T11:07:13.270Z,23.56
2018-06-13T11:08:13.250Z,23.55
2018-06-13T11:09:13.243Z,23.57
2018-06-13T11:10:13.181Z,23.57
2018-06-13T11:11:13.211Z,23.48
2018-06-13T11:12:13.137Z,23.48
2018-06-13T11:13:13.120Z,23.55
2018-06-13T11:14:13.068Z,23.53
2018-06-13T11:15:13.046Z,23.50
2018-06-13T11:16:13.186Z,23.52
2018-06-13T11:17:12.995Z,23.56
2018-06-13T11:18:12.979Z,23.52
2018-06-13T11:19:12.992Z,23.47
2018-06-13T11:20:12.919Z,23.42
2018-06-13T11:21:13.009Z,23.44
2018-06-13T11:22:12.871Z,23.56
2018-06-13T11:23:12.832Z,23.57
2018-06-13T11:24:12.825Z,23.48
2018-06-13T11:25:12.791Z,23.42
2018-06-13T11:26:12.928Z,23.50
2018-06-13T11:27:12.724Z,23.47
2018-06-13T11:28:12.698Z,23.50
2018-06-13T11:29:12.674Z,23.63
2018-06-13T11:30:12.660Z,23.55
2018-06-13T11:31:12.718Z,23.57
2018-06-13T11:32:12.603Z,23.55
2018-06-13T11:33:12.571Z,23.56
2018-06-13T11:34:12.527Z,23.57
2018-06-13T11:35:12.506Z,23.52
2018-06-13T11:36:12.592Z,23.59
2018-06-13T11:37:12.491Z,23.60
2018-06-13T11:38:12.438Z,23.67
2018-06-13T11:39:12.406Z,23.74
2018-06-13T11:40:12.374Z,23.74
2018-06-13T11:41:12.331Z,23.77
2018-06-13T11:42:12.422Z,23.82
2018-06-13T11:43:12.311Z,23.93
2018-06-13T11:44:12.270Z,23.96
2018-06-13T11:45:12.239Z,23.94
2018-06-13T11:46:12.219Z,23.94
2018-06-13T11:47:12.277Z,23.97
2018-06-13T11:48:12.189Z,24.11
2018-06-13T11:49:12.475Z,24.22
2018-06-13T11:50:12.171Z,24.52
2018-06-13T11:51:12.171Z,24.97
2018-06-13T11:52:12.384Z,25.09
2018-06-13T11:53:13.042Z,25.08
2018-06-13T11:54:12.121Z,25.09
2018-06-13T11:55:11.946Z,25.07
2018-06-13T11:56:11.963Z,25.00
2018-06-13T11:57:11.923Z,25.05
2018-06-13T11:58:12.002Z,25.02
2018-06-13T11:59:11.897Z,25.00
2018-06-13T12:00:11.929Z,25.12
2018-06-13T12:01:12.076Z,25.26
2018-06-13T12:02:11.791Z,25.37
2018-06-13T12:03:11.926Z,25.51
2018-06-13T12:04:11.734Z,25.88
2018-06-13T12:05:11.733Z,26.03
2018-06-13T12:06:11.690Z,26.32
2018-06-13T12:07:11.660Z,26.71
2018-06-13T12:08:11.725Z,27.33
2018-06-13T12:09:11.583Z,27.86
2018-06-13T12:10:11.667Z,28.39
2018-06-13T12:11:11.601Z,28.72
2018-06-13T12:12:11.499Z,29.24
2018-06-13T12:13:11.522Z,29.57
2018-06-13T12:14:11.498Z,29.98
2018-06-13T12:15:11.422Z,30.21
2018-06-13T12:16:11.411Z,30.52
2018-06-13T12:17:11.380Z,30.70
2018-06-13T12:18:11.366Z,30.94
2018-06-13T12:19:11.323Z,31.21
2018-06-13T12:20:11.398Z,31.55
2018-06-13T12:21:11.277Z,31.93
2018-06-13T12:22:11.235Z,31.88
2018-06-13T12:23:11.229Z,32.28
2018-06-13T12:24:11.199Z,32.31
2018-06-13T12:25:11.311Z,32.45
2018-06-13T12:26:11.245Z,32.30
2018-06-13T12:27:11.129Z,32.31
2018-06-13T12:28:11.099Z,32.52
2018-06-13T12:29:11.070Z,32.56
2018-06-13T12:30:11.140Z,32.30
2018-06-13T12:31:11.030Z,32.75
2018-06-13T12:32:10.985Z,32.98
2018-06-13T12:33:10.964Z,33.12
2018-06-13T12:34:10.982Z,32.91
2018-06-13T12:35:11.011Z,32.75
2018-06-13T12:36:10.911Z,32.80
2018-06-13T12:37:10.861Z,32.32
2018-06-13T12:38:10.843Z,32.32
2018-06-13T12:39:10.827Z,32.87
2018-06-13T12:40:10.994Z,33.21
2018-06-13T12:41:10.780Z,33.56
2018-06-13T12:42:10.752Z,33.61
2018-06-13T12:43:10.734Z,33.77
2018-06-13T12:44:10.700Z,33.59
2018-06-13T12:45:10.789Z,33.62
2018-06-13T12:46:10.664Z,33.58
2018-06-13T12:47:10.616Z,33.52
2018-06-13T12:48:10.606Z,33.26
2018-06-13T12:49:10.579Z,32.98
2018-06-13T12:50:10.643Z,32.79
2018-06-13T12:51:10.624Z,32.54
2018-06-13T12:52:10.488Z,32.27
2018-06-13T12:53:10.493Z,31.68